Lyman, Idaho
Current Conditions -  °F | °C
As of 4:53 AM on Friday 24 Oct 2014 (Local Time) from KRXE Reporting Station
Overcast Overcast  
Wind Chill: 51°   Ceiling: 9000
Heat Index: 51°   Visibility: 10mi
Dew Point: 35°   Wind: 13mph
Humidity: 54%   Direction: 200°SSW
Pressure: 30.13"   Gusts: NA
Location:  43.7568°N, 111.624°W
Report Text: KRXE 241053Z AUTO 20011KT 10SM OVC090 11/02 A3013 RMK AO2 SLP180 T01060017
Loading
Personal Weather Stations






























Interactive Weather Map
Tropical Storm Tracking
New forecast layout! Learn more

10-Day Weather Forecast

Advertisements
Track Severe Weather on mobile